Time;durP1;ratioP1;P1;durP2;ratioP2;P2;SDS_P1;SDS_P2;PMS_P1;PMS_P2;Temp;Humidity;BMP_temperature;BMP_pressure;BME280_temperature;BME280_humidity;BME280_pressure;Samples;Min_cycle;Max_cycle;Signal;HPM_P1;HPM_P2
2022/02/22 00:02:07;;;;;;;2.95;2.75;;;;;;;6.82;72.98;98950.91;1669390;84;20500;-61
2022/02/22 00:04:38;;;;;;;2.93;2.67;;;;;;;6.74;73.12;98945.28;1681137;84;21012;-63
2022/02/22 00:07:05;;;;;;;3.13;2.83;;;;;;;6.73;73.01;98942.82;1732562;82;21574;-63
2022/02/22 00:09:34;;;;;;;2.40;2.20;;;;;;;6.77;72.89;98942.22;1701416;83;20998;-62
2022/02/22 00:12:01;;;;;;;2.93;2.30;;;;;;;6.87;72.57;98953.76;1680098;82;21023;-62
2022/02/22 00:14:30;;;;;;;3.20;2.80;;;;;;;6.95;72.29;98951.44;1708024;83;21570;-62
2022/02/22 00:16:56;;;;;;;2.60;2.40;;;;;;;6.99;72.16;98950.86;1718970;83;21059;-62
2022/02/22 00:19:27;;;;;;;2.52;2.40;;;;;;;6.97;72.04;98949.44;1703619;83;21047;-63
2022/02/22 00:21:55;;;;;;;2.93;2.73;;;;;;;6.95;72.02;98950.11;1710280;83;21039;-61
2022/02/22 00:24:24;;;;;;;3.07;2.70;;;;;;;6.94;72.03;98945.84;1719728;82;21051;-62
2022/02/22 00:26:51;;;;;;;3.70;3.37;;;;;;;6.92;72.04;98937.28;1683971;84;21101;-61
2022/02/22 00:29:17;;;;;;;4.25;3.55;;;;;;;6.86;72.02;98936.77;1699641;83;21111;-62
2022/02/22 00:31:43;;;;;;;3.50;3.10;;;;;;;6.84;71.99;98939.61;1688156;83;21035;-61
2022/02/22 00:34:10;;;;;;;4.67;2.92;;;;;;;6.87;71.93;98943.68;1695570;82;21055;-61
2022/02/22 00:36:36;;;;;;;3.27;2.98;;;;;;;6.92;71.59;98935.97;1705374;83;21208;-62
2022/02/22 00:39:05;;;;;;;2.42;2.22;;;;;;;6.96;71.41;98939.84;1687417;84;20992;-60
2022/02/22 00:41:32;;;;;;;3.43;3.07;;;;;;;6.96;71.48;98938.00;1706115;83;20999;-61
2022/02/22 00:43:59;;;;;;;3.17;2.98;;;;;;;6.91;71.45;98934.31;1717849;82;21083;-61
2022/02/22 00:46:25;;;;;;;3.15;2.95;;;;;;;6.89;71.40;98934.51;1709948;83;21043;-61
2022/02/22 00:48:51;;;;;;;3.40;2.80;;;;;;;6.86;71.39;98935.44;1704097;83;21099;-60
2022/02/22 00:51:18;;;;;;;3.65;3.35;;;;;;;6.81;71.43;98933.37;1697442;83;21098;-62
2022/02/22 00:53:45;;;;;;;3.30;3.00;;;;;;;6.74;71.51;98929.88;1690478;84;21516;-61
2022/02/22 00:56:12;;;;;;;2.75;2.55;;;;;;;6.69;71.84;98936.30;1677050;84;21126;-60
2022/02/22 00:58:38;;;;;;;4.03;2.85;;;;;;;6.67;72.17;98931.19;1689249;83;21064;-60
2022/02/22 01:01:04;;;;;;;3.62;3.22;;;;;;;6.72;72.02;98927.42;1672055;83;21432;-62
2022/02/22 01:03:33;;;;;;;5.40;3.80;;;;;;;6.71;71.92;98932.42;1675348;84;21593;-62
2022/02/22 01:05:59;;;;;;;3.87;3.47;;;;;;;6.63;72.18;98941.35;1649929;86;21086;-61
2022/02/22 01:08:25;;;;;;;4.67;4.17;;;;;;;6.56;72.70;98935.20;1670646;84;21062;-62
2022/02/22 01:10:52;;;;;;;;;;;;;;;6.50;72.90;98940.45;1690440;83;21571;-62
2022/02/22 01:13:20;;;;;;;3.87;3.57;;;;;;;6.43;73.17;98942.56;1702961;82;20150;-61
2022/02/22 01:15:46;;;;;;;3.73;3.43;;;;;;;6.34;73.47;98941.09;1707680;82;21131;-63
2022/02/22 01:18:12;;;;;;;4.17;3.30;;;;;;;6.37;73.52;98944.68;1713208;82;21124;-61
2022/02/22 01:20:38;;;;;;;2.87;2.67;;;;;;;6.45;73.58;98952.97;1708983;82;20980;-61
2022/02/22 01:23:04;;;;;;;6.00;3.98;;;;;;;6.50;73.45;98951.05;1713095;82;21016;-62
2022/02/22 01:25:30;;;;;;;2.87;2.60;;;;;;;6.51;73.39;98955.34;1723872;82;21589;-62
2022/02/22 01:27:57;;;;;;;3.35;3.05;;;;;;;6.46;73.65;98955.09;1715437;82;21084;-61
2022/02/22 01:30:23;;;;;;;3.62;3.05;;;;;;;6.40;73.62;98956.70;1716728;82;21033;-61
2022/02/22 01:32:50;;;;;;;3.43;3.13;;;;;;;6.37;73.72;98963.20;1726837;82;21069;-61
2022/02/22 01:35:16;;;;;;;2.60;2.42;;;;;;;6.35;73.94;98961.27;1726473;82;21044;-62
2022/02/22 01:37:43;;;;;;;2.90;2.60;;;;;;;6.37;73.80;98969.83;1710015;82;21059;-63
2022/02/22 01:40:12;;;;;;;3.63;3.27;;;;;;;6.45;73.57;98974.66;1706839;82;21116;-62
2022/02/22 01:42:40;;;;;;;3.53;3.23;;;;;;;6.45;73.59;98968.04;1710218;82;21557;-60
2022/02/22 01:45:08;;;;;;;4.77;3.90;;;;;;;6.38;73.78;98966.15;1707319;81;21091;-63
2022/02/22 01:47:35;;;;;;;4.93;4.53;;;;;;;6.33;73.90;98975.20;1721000;82;21088;-62
2022/02/22 01:50:03;;;;;;;4.58;4.17;;;;;;;6.30;73.96;98979.55;1709502;82;21057;-61
2022/02/22 01:52:30;;;;;;;6.27;5.30;;;;;;;6.30;73.98;98976.09;1709473;82;21503;-61
2022/02/22 01:54:56;;;;;;;;;;;;;;;6.34;73.84;98964.91;1716253;82;21030;-62
2022/02/22 01:57:24;;;;;;;5.85;5.10;;;;;;;6.41;73.76;98960.48;1649137;84;20135;-62
2022/02/22 01:59:53;;;;;;;6.10;4.97;;;;;;;6.41;73.62;98960.99;1652225;85;21040;-61
2022/02/22 02:02:19;;;;;;;5.90;4.43;;;;;;;6.39;73.62;98957.21;1715450;82;21493;-61
2022/02/22 02:04:46;;;;;;;5.60;4.20;;;;;;;6.38;73.74;98960.05;1701177;82;21525;-61
2022/02/22 02:07:12;;;;;;;5.30;4.85;;;;;;;6.36;73.90;98961.56;1706288;82;21081;-62
2022/02/22 02:09:38;;;;;;;;;;;;;;;6.34;73.90;98956.16;1700585;83;21157;-61
2022/02/22 02:12:06;;;;;;;8.00;5.00;;;;;;;6.29;74.19;98950.63;1700196;83;20488;-63
2022/02/22 02:14:32;;;;;;;4.57;4.13;;;;;;;6.20;74.64;98958.73;1721264;82;21485;-61
2022/02/22 02:16:59;;;;;;;8.60;5.53;;;;;;;6.26;74.54;98955.00;1720122;81;21025;-61
2022/02/22 02:19:25;;;;;;;6.10;5.50;;;;;;;6.27;74.56;98953.46;1711565;82;21145;-61
2022/02/22 02:21:53;;;;;;;7.78;6.95;;;;;;;6.19;74.94;98958.40;1707579;81;21074;-62
2022/02/22 02:24:23;;;;;;;6.80;6.17;;;;;;;6.19;74.94;98958.40;1745480;80;21153;-62
2022/02/22 02:26:53;;;;;;;7.90;6.70;;;;;;;6.16;75.07;98962.77;1732406;81;21115;-60
2022/02/22 02:29:22;;;;;;;9.83;6.57;;;;;;;6.20;75.04;98960.56;1741401;80;21091;-61
2022/02/22 02:31:53;;;;;;;8.20;7.40;;;;;;;6.29;74.97;98967.34;1734091;81;20997;-62
2022/02/22 02:34:23;;;;;;;10.67;9.30;;;;;;;6.26;75.31;98971.69;1722926;80;21002;-60
2022/02/22 02:36:50;;;;;;;12.73;10.83;;;;;;;6.19;75.43;98973.47;1658968;85;21069;-60
2022/02/22 02:39:16;;;;;;;;;;;;;;;6.13;75.59;98987.47;1697550;83;21002;-62
2022/02/22 02:41:46;;;;;;;11.67;9.57;;;;;;;6.06;76.06;98986.09;1695156;82;20170;-60
2022/02/22 02:44:17;;;;;;;11.77;8.83;;;;;;;5.99;76.28;98987.37;1670659;84;21091;-61
2022/02/22 02:46:43;;;;;;;10.27;8.07;;;;;;;6.06;76.30;98987.41;1715188;82;21032;-60
2022/02/22 02:49:13;;;;;;;9.07;8.17;;;;;;;6.05;76.50;98987.12;1658240;84;21100;-60
2022/02/22 02:51:40;;;;;;;8.90;8.00;;;;;;;6.01;76.73;98991.16;1706400;82;21017;-61
2022/02/22 02:54:09;;;;;;;9.93;8.93;;;;;;;5.96;76.85;98995.69;1673589;83;21133;-60
2022/02/22 02:56:36;;;;;;;9.53;7.93;;;;;;;5.95;76.95;98998.48;1694224;82;21573;-60
2022/02/22 02:59:05;;;;;;;;;;;;;;;6.01;76.92;99011.00;1703289;83;21591;-62
2022/02/22 03:01:34;;;;;;;8.73;7.13;;;;;;;6.11;76.68;99014.12;1710144;83;20161;-60
2022/02/22 03:04:02;;;;;;;8.33;7.43;;;;;;;6.14;76.67;99019.52;1675296;83;21620;-64
2022/02/22 03:06:29;;;;;;;9.67;8.27;;;;;;;6.14;76.83;99020.36;1695283;83;21112;-61
2022/02/22 03:08:56;;;;;;;8.43;7.57;;;;;;;6.12;76.89;99017.57;1685807;83;21085;-63
2022/02/22 03:11:22;;;;;;;9.60;8.23;;;;;;;6.09;77.00;99020.62;1666708;82;21294;-61
2022/02/22 03:13:49;;;;;;;11.97;8.20;;;;;;;6.07;77.12;99019.48;1680294;84;21126;-62
2022/02/22 03:16:16;;;;;;;11.83;9.13;;;;;;;6.07;77.15;99026.61;1659111;85;21142;-61
2022/02/22 03:18:45;;;;;;;8.67;7.80;;;;;;;6.10;76.98;99023.56;1642182;85;21096;-61
2022/02/22 03:21:11;;;;;;;8.17;7.37;;;;;;;6.19;76.71;99026.38;1677081;83;21545;-61
2022/02/22 03:23:37;;;;;;;9.28;8.40;;;;;;;6.25;76.62;99032.22;1649803;85;21598;-61
2022/02/22 03:26:03;;;;;;;9.53;8.10;;;;;;;6.24;76.65;99036.70;1700286;83;21634;-62
2022/02/22 03:28:32;;;;;;;9.58;8.40;;;;;;;6.21;76.86;99038.91;1702707;83;21092;-60
2022/02/22 03:31:00;;;;;;;10.77;8.80;;;;;;;6.16;76.99;99046.12;1702758;83;21089;-61
2022/02/22 03:33:26;;;;;;;9.20;8.30;;;;;;;6.10;77.32;99054.80;1694774;82;20970;-61
2022/02/22 03:35:52;;;;;;;9.20;8.23;;;;;;;6.08;77.33;99057.33;1705072;83;21516;-62
2022/02/22 03:38:19;;;;;;;10.23;8.70;;;;;;;6.16;77.24;99064.64;1689473;83;21132;-60
2022/02/22 03:40:45;;;;;;;9.38;8.23;;;;;;;6.23;77.03;99064.19;1700376;83;21093;-62
2022/02/22 03:43:12;;;;;;;9.33;8.20;;;;;;;6.26;76.99;99059.02;1686523;83;21115;-65
2022/02/22 03:45:38;;;;;;;8.40;7.60;;;;;;;6.22;76.90;99058.57;1708597;81;21040;-60
2022/02/22 03:48:05;;;;;;;10.10;9.05;;;;;;;6.17;77.01;99058.31;1705708;83;21067;-61
2022/02/22 03:50:31;;;;;;;10.10;9.10;;;;;;;6.13;77.22;99054.94;1691971;83;21112;-61
2022/02/22 03:53:00;;;;;;;10.27;7.73;;;;;;;6.11;77.30;99059.61;1693123;83;20986;-61
2022/02/22 03:55:26;;;;;;;8.75;7.70;;;;;;;6.12;77.18;99058.58;1703175;82;21088;-61
2022/02/22 03:57:52;;;;;;;9.58;8.58;;;;;;;6.19;77.06;99063.42;1702250;83;21049;-62
2022/02/22 04:00:22;;;;;;;9.38;8.18;;;;;;;6.25;76.92;99069.27;1715005;82;20997;-61
2022/02/22 04:02:49;;;;;;;8.50;7.70;;;;;;;6.26;76.92;99070.11;1713823;83;21048;-61
2022/02/22 04:05:18;;;;;;;8.37;7.17;;;;;;;6.23;76.93;99067.32;1708734;83;21041;-65
2022/02/22 04:07:45;;;;;;;9.17;8.07;;;;;;;6.20;76.93;99069.05;1706482;83;21021;-63
2022/02/22 04:10:12;;;;;;;11.03;8.27;;;;;;;6.18;76.89;99071.06;1715338;83;21110;-60
2022/02/22 04:12:39;;;;;;;9.30;8.07;;;;;;;6.18;76.90;99079.00;1685572;82;20978;-63
2022/02/22 04:15:08;;;;;;;;;;;;;;;6.20;76.82;99073.02;1689254;84;21052;-60
2022/02/22 04:17:34;;;;;;;8.60;7.20;;;;;;;6.29;76.56;99077.16;1681041;84;20165;-62
2022/02/22 04:20:03;;;;;;;9.03;7.70;;;;;;;6.35;76.41;99080.88;1660811;85;21541;-61
2022/02/22 04:22:31;;;;;;;8.47;7.57;;;;;;;6.36;76.25;99081.98;1662822;83;21130;-62
2022/02/22 04:24:57;;;;;;;8.90;7.20;;;;;;;6.36;76.24;99074.55;1653157;85;21093;-64
2022/02/22 04:27:23;;;;;;;8.68;7.75;;;;;;;6.34;76.21;99065.98;1653775;85;21032;-61
2022/02/22 04:29:49;;;;;;;10.48;8.23;;;;;;;6.29;76.11;99066.58;1676123;84;21020;-61
2022/02/22 04:32:15;;;;;;;9.63;7.75;;;;;;;6.25;76.08;99070.59;1671493;85;21025;-62
2022/02/22 04:34:42;;;;;;;9.48;7.83;;;;;;;6.22;76.07;99069.67;1670587;83;21585;-61
2022/02/22 04:37:15;;;;;;;7.83;6.90;;;;;;;6.29;75.91;99074.52;1683699;83;21029;-62
2022/02/22 04:39:36;;;;;;;9.90;7.53;;;;;;;6.36;75.60;99078.52;1692303;83;21120;-62
2022/02/22 04:42:02;;;;;;;12.13;8.80;;;;;;;6.33;75.54;99085.03;1693712;83;21511;-61
2022/02/22 04:44:29;;;;;;;11.57;7.97;;;;;;;6.28;75.60;99083.45;1696701;83;21158;-62
2022/02/22 04:46:55;;;;;;;12.85;8.88;;;;;;;6.23;75.57;99097.27;1684307;84;21069;-61
2022/02/22 04:49:21;;;;;;;9.78;8.78;;;;;;;6.19;75.64;99089.89;1691375;83;21116;-68
2022/02/22 04:51:47;;;;;;;11.90;8.78;;;;;;;6.14;75.72;99098.41;1685992;83;21064;-61
2022/02/22 04:54:14;;;;;;;9.63;7.53;;;;;;;6.16;75.76;99099.52;1679692;83;21117;-64
2022/02/22 04:56:40;;;;;;;9.50;7.33;;;;;;;6.24;75.52;99103.38;1674355;82;21040;-61
2022/02/22 04:59:07;;;;;;;8.95;8.05;;;;;;;6.30;75.42;99105.77;1718539;81;21029;-62
2022/02/22 05:01:33;;;;;;;11.30;8.80;;;;;;;6.27;75.34;99101.65;1692154;81;21135;-63
2022/02/22 05:03:59;;;;;;;11.15;9.48;;;;;;;6.26;75.28;99106.64;1680520;83;21147;-61
2022/02/22 05:06:25;;;;;;;;;;;;;;;6.23;75.27;99116.27;1684568;83;21013;-63
2022/02/22 05:08:51;;;;;;;9.17;8.17;;;;;;;6.22;75.26;99123.41;1689050;83;20383;-62
2022/02/22 05:11:17;;;;;;;9.55;8.55;;;;;;;6.16;75.35;99122.00;1683554;82;21958;-64
2022/02/22 05:13:44;;;;;;;10.32;7.78;;;;;;;6.15;75.02;99130.45;1674325;84;21871;-62
2022/02/22 05:16:10;;;;;;;9.43;8.23;;;;;;;6.21;74.80;99138.95;1675365;84;20963;-61
2022/02/22 05:18:36;;;;;;;8.30;7.42;;;;;;;6.26;74.69;99138.40;1679268;84;20927;-64
2022/02/22 05:21:02;;;;;;;9.23;7.58;;;;;;;6.29;74.61;99139.84;1680044;84;21046;-61
2022/02/22 05:23:33;;;;;;;;;;;;;;;6.27;74.56;99137.38;1677041;81;21111;-60
2022/02/22 05:25:59;;;;;;;11.40;7.90;;;;;;;6.22;74.34;99139.80;1678584;84;20145;-62
2022/02/22 05:28:27;;;;;;;10.90;8.53;;;;;;;6.12;74.40;99144.56;1670068;84;21110;-65
2022/02/22 05:30:54;;;;;;;13.70;9.60;;;;;;;6.08;74.49;99139.34;1677977;84;21557;-65
2022/02/22 05:33:22;;;;;;;11.33;8.63;;;;;;;6.09;74.40;99143.63;1640933;85;21083;-63
2022/02/22 05:35:51;;;;;;;10.93;8.47;;;;;;;6.11;74.22;99146.91;1627789;87;21049;-63
2022/02/22 05:38:18;;;;;;;8.50;7.30;;;;;;;6.13;73.88;99151.50;1668871;84;21416;-62
2022/02/22 05:40:45;;;;;;;7.97;7.27;;;;;;;6.16;73.53;99154.59;1666017;84;21027;-61
2022/02/22 05:43:11;;;;;;;;;;;;;;;6.21;73.35;99152.69;1667971;84;21160;-62
2022/02/22 05:45:39;;;;;;;9.77;8.77;;;;;;;6.14;73.46;99164.55;1677684;83;20236;-62
2022/02/22 05:48:05;;;;;;;10.63;9.20;;;;;;;6.04;73.78;99157.41;1672058;84;21501;-63
2022/02/22 05:50:33;;;;;;;11.20;8.38;;;;;;;6.06;73.95;99168.62;1688725;83;21741;-63
2022/02/22 05:52:59;;;;;;;11.20;9.70;;;;;;;6.11;73.87;99177.33;1677932;84;21010;-63
2022/02/22 05:55:26;;;;;;;10.50;9.18;;;;;;;6.15;73.64;99182.56;1678379;84;21011;-62
2022/02/22 05:57:54;;;;;;;10.57;9.07;;;;;;;6.16;73.52;99186.34;1728467;81;21135;-63
2022/02/22 06:00:20;;;;;;;9.50;8.03;;;;;;;6.20;73.20;99179.66;1678229;84;21000;-63
2022/02/22 06:02:46;;;;;;;7.87;6.78;;;;;;;6.33;72.97;99178.14;1702647;83;21024;-68
2022/02/22 06:05:15;;;;;;;8.73;7.23;;;;;;;6.39;72.64;99188.80;1705835;83;21069;-63
2022/02/22 06:07:41;;;;;;;8.03;7.07;;;;;;;6.35;72.33;99200.78;1704008;83;21065;-63
2022/02/22 06:10:11;;;;;;;8.68;7.78;;;;;;;6.29;72.20;99201.55;1706628;83;21013;-65
2022/02/22 06:12:38;;;;;;;19.90;9.50;;;;;;;6.28;72.30;99211.80;1718752;81;21016;-64
2022/02/22 06:15:05;;;;;;;;;;;;;;;6.27;72.20;99211.47;1728149;81;21733;-63
2022/02/22 06:17:41;;;;;;;10.10;8.97;;;;;;;6.22;71.98;99213.88;1723028;81;20151;-64
2022/02/22 06:20:11;;;;;;;9.77;8.53;;;;;;;6.15;72.07;99211.66;1725164;81;21064;-64
2022/02/22 06:22:39;;;;;;;10.47;8.77;;;;;;;6.12;72.23;99206.25;1714311;81;21092;-62
2022/02/22 06:25:09;;;;;;;12.57;8.73;;;;;;;6.13;72.77;99215.81;1696524;83;21053;-63
2022/02/22 06:27:46;;;;;;;10.60;8.63;;;;;;;6.15;72.70;99216.95;1694202;83;21036;-63
2022/02/22 06:30:12;;;;;;;15.37;9.20;;;;;;;6.15;72.31;99219.60;1701574;83;21025;-63
2022/02/22 06:32:39;;;;;;;13.80;10.45;;;;;;;6.13;72.40;99217.14;1695363;83;21545;-63
2022/02/22 06:35:07;;;;;;;13.55;10.15;;;;;;;6.12;71.69;99223.93;1703526;82;21474;-63
2022/02/22 06:37:33;;;;;;;12.30;9.40;;;;;;;6.09;72.28;99229.10;1700459;83;21024;-62
2022/02/22 06:40:00;;;;;;;16.57;10.58;;;;;;;6.16;71.72;99226.52;1703477;83;21188;-64
2022/02/22 06:42:26;;;;;;;10.80;9.38;;;;;;;6.29;71.42;99231.98;1705197;83;21064;-63
2022/02/22 06:44:52;;;;;;;10.40;9.23;;;;;;;6.36;70.67;99234.68;1705368;81;21079;-63
2022/02/22 06:47:18;;;;;;;15.40;8.50;;;;;;;6.36;69.83;99235.48;1703088;83;21092;-63
2022/02/22 06:49:44;;;;;;;8.85;7.55;;;;;;;6.36;69.83;99235.48;1702709;83;21599;-63
2022/02/22 06:52:10;;;;;;;9.58;8.50;;;;;;;6.38;69.81;99241.92;1701014;83;21012;-64
2022/02/22 06:54:36;;;;;;;10.68;8.75;;;;;;;6.36;69.31;99239.97;1705433;83;21100;-64
2022/02/22 06:57:03;;;;;;;9.83;8.80;;;;;;;6.29;69.24;99235.95;1685143;83;21069;-64
2022/02/22 06:59:29;;;;;;;11.20;8.60;;;;;;;6.30;69.13;99232.28;1686543;84;21049;-64
2022/02/22 07:01:55;;;;;;;15.30;8.58;;;;;;;6.34;69.09;99240.16;1699174;83;21033;-63
2022/02/22 07:04:21;;;;;;;10.48;9.30;;;;;;;6.43;68.17;99238.22;1690737;83;21062;-64
2022/02/22 07:06:48;;;;;;;9.40;8.13;;;;;;;6.56;67.92;99234.88;1694745;83;21056;-63
2022/02/22 07:09:14;;;;;;;10.88;8.45;;;;;;;6.69;67.54;99237.66;1687875;83;21029;-63
2022/02/22 07:11:40;;;;;;;;;;;;;;;6.80;66.88;99241.63;1688065;83;21022;-65
2022/02/22 07:14:06;;;;;;;10.10;8.67;;;;;;;6.94;65.94;99247.34;1667713;84;20114;-64
2022/02/22 07:16:33;;;;;;;;;;;;;;;7.02;65.46;99249.83;1679529;84;21138;-62
2022/02/22 07:18:59;;;;;;;11.70;8.37;;;;;;;7.14;65.09;99246.66;1671687;84;20179;-63
2022/02/22 07:21:25;;;;;;;7.90;7.10;;;;;;;7.15;63.23;99246.98;1672471;84;21487;-63
2022/02/22 07:23:51;;;;;;;10.95;7.75;;;;;;;7.19;62.52;99245.58;1666397;81;21088;-63
2022/02/22 07:26:17;;;;;;;9.68;7.72;;;;;;;7.28;61.88;99253.70;1670577;84;21014;-62
2022/02/22 07:28:43;;;;;;;8.43;6.47;;;;;;;7.39;61.65;99249.70;1663251;84;21021;-62
2022/02/22 07:31:11;;;;;;;10.20;7.72;;;;;;;7.51;61.52;99250.78;1667524;84;20998;-64
2022/02/22 07:33:39;;;;;;;11.00;7.70;;;;;;;7.66;60.75;99248.02;1655347;84;21109;-62
2022/02/22 07:36:07;;;;;;;8.87;7.27;;;;;;;7.71;58.60;99250.91;1668118;84;21556;-64
2022/02/22 07:38:33;;;;;;;8.50;6.93;;;;;;;7.69;58.43;99252.13;1646244;84;21134;-63
2022/02/22 07:41:01;;;;;;;8.30;7.50;;;;;;;7.67;57.84;99254.16;1618479;87;21163;-63
2022/02/22 07:43:27;;;;;;;9.93;7.43;;;;;;;7.66;58.31;99253.83;1632440;85;21067;-62
2022/02/22 07:45:53;;;;;;;12.33;7.75;;;;;;;7.77;57.76;99255.42;1646382;85;21563;-63
2022/02/22 07:48:19;;;;;;;12.58;7.42;;;;;;;7.84;55.95;99256.80;1659388;85;21053;-64
2022/02/22 07:50:46;;;;;;;12.47;8.23;;;;;;;7.82;55.75;99262.80;1660443;86;21066;-62
2022/02/22 07:53:13;;;;;;;11.10;6.57;;;;;;;7.81;56.07;99265.13;1638168;85;21090;-69
2022/02/22 07:55:39;;;;;;;7.67;6.35;;;;;;;7.85;55.57;99267.70;1628375;86;21054;-65
2022/02/22 07:58:06;;;;;;;9.35;6.08;;;;;;;7.89;54.36;99265.47;1612091;87;21089;-63
2022/02/22 08:00:32;;;;;;;;;;;;;;;7.90;54.04;99269.78;1629244;86;21112;-63
2022/02/22 08:02:59;;;;;;;11.07;6.67;;;;;;;7.91;54.10;99268.26;1725950;81;20161;-63
2022/02/22 08:05:24;;;;;;;;;;;;;;;7.92;53.39;99271.20;1726306;81;21045;-67
2022/02/22 08:07:52;;;;;;;10.13;5.40;;;;;;;8.03;53.27;99271.67;1726374;81;20132;-63
2022/02/22 08:13:13;;;;;;;8.37;4.90;;;;;;;8.23;50.44;99264.61;1722939;78;22968;-65
2022/02/22 08:15:40;;;;;;;8.80;5.73;;;;;;;8.28;50.12;99264.00;1677913;83;21038;-64
2022/02/22 08:18:06;;;;;;;7.78;4.62;;;;;;;8.34;49.47;99260.05;1677263;83;21529;-63
2022/02/22 08:20:32;;;;;;;5.53;4.70;;;;;;;8.42;49.02;99255.09;1675510;83;21009;-65
2022/02/22 08:23:00;;;;;;;7.12;4.62;;;;;;;8.46;47.94;99257.66;1689327;83;21035;-63
2022/02/22 08:25:27;;;;;;;7.73;4.90;;;;;;;8.49;48.19;99260.41;1696039;84;21110;-63
2022/02/22 08:27:53;;;;;;;6.90;5.03;;;;;;;8.50;47.97;99252.77;1696497;83;21042;-64
2022/02/22 08:30:21;;;;;;;5.08;3.77;;;;;;;8.51;47.88;99257.03;1695140;83;21018;-64
2022/02/22 08:32:49;;;;;;;5.70;2.60;;;;;;;8.55;47.63;99255.61;1693579;83;21122;-69
2022/02/22 08:35:15;;;;;;;6.40;3.57;;;;;;;8.59;44.86;99256.86;1695728;83;21035;-64
2022/02/22 08:37:42;;;;;;;6.35;3.75;;;;;;;8.61;45.75;99261.95;1696568;83;21647;-63
2022/02/22 08:40:09;;;;;;;8.65;4.15;;;;;;;8.66;45.76;99261.66;1654343;85;21548;-65
2022/02/22 08:42:35;;;;;;;6.30;3.87;;;;;;;8.73;45.62;99271.78;1655673;85;21605;-63
2022/02/22 08:45:01;;;;;;;6.90;4.08;;;;;;;8.82;44.86;99270.28;1659508;84;21044;-64
2022/02/22 08:47:31;;;;;;;8.30;3.43;;;;;;;8.90;44.54;99265.57;1674930;84;21626;-64
2022/02/22 08:49:57;;;;;;;3.83;2.30;;;;;;;8.99;43.21;99264.06;1677573;84;21036;-63
2022/02/22 08:52:23;;;;;;;4.67;2.33;;;;;;;9.04;42.75;99263.75;1677416;84;21498;-69
2022/02/22 08:54:49;;;;;;;2.90;2.30;;;;;;;9.10;42.57;99269.58;1645975;85;21077;-64
2022/02/22 08:57:15;;;;;;;5.45;2.45;;;;;;;9.20;41.94;99273.66;1676694;83;21555;-62
2022/02/22 08:59:41;;;;;;;5.28;3.17;;;;;;;9.26;41.35;99272.83;1665749;85;21037;-64
2022/02/22 09:02:07;;;;;;;7.03;3.83;;;;;;;9.27;40.72;99271.82;1667323;84;21489;-64
2022/02/22 09:04:34;;;;;;;8.10;2.67;;;;;;;9.24;41.42;99274.88;1651150;85;21037;-63
2022/02/22 09:07:00;;;;;;;4.40;3.02;;;;;;;9.27;41.11;99278.47;1666765;84;21014;-65
2022/02/22 09:09:27;;;;;;;5.55;3.33;;;;;;;9.29;41.64;99279.89;1623234;87;21092;-62
2022/02/22 09:11:53;;;;;;;6.67;2.97;;;;;;;9.36;40.95;99279.87;1640040;84;21037;-64
2022/02/22 09:14:21;;;;;;;2.60;2.35;;;;;;;9.36;40.25;99285.19;1642160;86;21544;-62
2022/02/22 09:16:47;;;;;;;2.87;2.13;;;;;;;9.40;40.52;99285.59;1635613;86;21060;-66
2022/02/22 09:19:13;;;;;;;2.55;1.80;;;;;;;9.43;39.88;99283.34;1688985;83;21161;-65
2022/02/22 09:21:39;;;;;;;4.45;1.82;;;;;;;9.45;39.31;99279.96;1688582;83;21478;-63
2022/02/22 09:24:05;;;;;;;3.35;1.45;;;;;;;9.48;38.97;99280.89;1686309;81;21037;-65
2022/02/22 09:26:31;;;;;;;8.25;2.08;;;;;;;9.51;38.40;99277.83;1684597;83;21021;-65
2022/02/22 09:28:59;;;;;;;1.95;1.00;;;;;;;9.56;39.11;99271.88;1686717;83;21049;-64
2022/02/22 09:31:25;;;;;;;3.23;1.73;;;;;;;9.65;38.55;99278.61;1688551;83;20997;-64
2022/02/22 09:33:52;;;;;;;6.62;1.90;;;;;;;9.73;38.80;99280.22;1689191;82;21020;-65
2022/02/22 09:36:18;;;;;;;4.42;1.57;;;;;;;9.82;38.27;99273.66;1685394;83;21485;-62
2022/02/22 09:38:44;;;;;;;6.55;2.35;;;;;;;9.86;38.58;99278.05;1686579;83;21590;-62
2022/02/22 09:41:11;;;;;;;4.33;2.05;;;;;;;9.90;38.14;99277.41;1688439;83;21377;-65
2022/02/22 09:43:37;;;;;;;5.33;2.20;;;;;;;9.92;37.99;99275.34;1689058;83;21017;-65
2022/02/22 09:46:09;;;;;;;4.65;1.25;;;;;;;9.91;37.25;99272.40;1687569;83;20986;-64
2022/02/22 09:48:32;;;;;;;2.83;0.90;;;;;;;9.86;37.68;99266.88;1681838;83;22271;-65
2022/02/22 09:50:58;;;;;;;1.70;0.95;;;;;;;9.85;37.49;99270.59;1683209;83;21041;-63
2022/02/22 09:53:24;;;;;;;5.03;1.60;;;;;;;9.86;37.56;99264.73;1686974;83;21505;-64
2022/02/22 09:55:51;;;;;;;6.87;2.05;;;;;;;9.88;37.46;99265.34;1682994;82;21083;-65
2022/02/22 09:58:17;;;;;;;10.18;1.95;;;;;;;9.86;37.29;99254.91;1672302;84;21027;-64
2022/02/22 10:00:43;;;;;;;6.95;3.65;;;;;;;9.86;37.46;99260.22;1673515;83;21000;-63
2022/02/22 10:03:17;;;;;;;4.10;1.60;;;;;;;9.87;37.80;99255.70;1691664;83;20984;-63
2022/02/22 10:06:02;;;;;;;2.73;1.63;;;;;;;9.88;38.25;99260.83;1687099;83;21119;-64
2022/02/22 10:08:35;;;;;;;3.20;1.53;;;;;;;9.93;37.97;99265.02;1687079;83;21003;-63
2022/02/22 10:11:09;;;;;;;2.90;2.10;;;;;;;9.90;38.17;99255.30;1654930;85;21036;-66
2022/02/22 10:13:37;;;;;;;3.53;1.13;;;;;;;9.90;37.51;99252.64;1685424;83;21100;-72
2022/02/22 10:16:12;;;;;;;2.30;1.10;;;;;;;9.88;37.83;99239.53;1663609;83;21551;-64
2022/02/22 10:18:50;;;;;;;2.17;1.00;;;;;;;9.87;38.01;99247.23;1691387;83;21032;-68
2022/02/22 10:21:18;;;;;;;3.93;1.47;;;;;;;9.87;38.10;99256.55;1642809;85;21079;-64
2022/02/22 10:23:45;;;;;;;2.20;1.13;;;;;;;9.89;38.22;99261.14;1699656;83;21122;-63
2022/02/22 10:26:25;;;;;;;3.93;1.17;;;;;;;9.98;38.32;99256.39;1702448;83;21104;-65
2022/02/22 10:28:53;;;;;;;3.00;0.97;;;;;;;10.06;37.89;99248.18;1703808;83;21083;-64
2022/02/22 10:31:33;;;;;;;1.70;0.53;;;;;;;10.16;37.64;99246.39;1700820;83;21024;-65
2022/02/22 10:34:00;;;;;;;1.07;0.40;;;;;;;10.22;36.54;99248.19;1695289;83;21558;-64
2022/02/22 10:36:34;;;;;;;1.93;0.30;;;;;;;10.28;35.95;99250.03;1684384;83;21092;-72
2022/02/22 10:39:07;;;;;;;1.73;0.40;;;;;;;10.33;35.16;99247.55;1685300;83;21095;-65
2022/02/22 10:41:39;;;;;;;0.70;0.30;;;;;;;10.35;34.58;99247.87;1676956;83;21131;-65
2022/02/22 10:44:08;;;;;;;2.37;0.63;;;;;;;10.33;34.49;99251.55;1683408;83;21127;-65
2022/02/22 10:46:40;;;;;;;2.67;0.40;;;;;;;10.30;34.65;99259.11;1687809;83;21016;-67
2022/02/22 10:49:13;;;;;;;1.80;0.47;;;;;;;10.24;33.69;99244.80;1691426;83;21043;-66
2022/02/22 10:51:48;;;;;;;1.93;0.40;;;;;;;10.15;34.37;99254.06;1689299;83;21024;-64
2022/02/22 10:54:25;;;;;;;1.83;0.60;;;;;;;10.15;34.83;99248.73;1691269;83;21075;-65
2022/02/22 10:56:53;;;;;;;;;;;;;;;10.13;34.40;99255.63;1690519;81;21601;-65
2022/02/22 10:59:23;;;;;;;2.27;0.80;;;;;;;10.06;34.78;99254.03;1689235;83;20446;-65
2022/02/22 11:01:50;;;;;;;3.13;0.90;;;;;;;9.93;34.99;99255.70;1668659;84;21768;-65
2022/02/22 11:04:17;;;;;;;3.27;0.87;;;;;;;9.92;35.62;99254.58;1664358;85;22079;-66
2022/02/22 11:06:44;;;;;;;2.87;0.90;;;;;;;10.00;35.81;99256.18;1666813;85;21545;-63
2022/02/22 11:09:17;;;;;;;1.45;0.60;;;;;;;10.07;35.96;99255.64;1666412;85;21463;-65
2022/02/22 11:11:53;;;;;;;2.33;0.60;;;;;;;10.13;36.01;99251.64;1665874;84;21129;-67
2022/02/22 11:14:29;;;;;;;2.40;1.00;;;;;;;10.19;36.10;99245.98;1684749;84;21050;-64
2022/02/22 11:16:58;;;;;;;2.47;0.77;;;;;;;10.20;35.41;99240.94;1686685;84;21026;-66
2022/02/22 11:19:37;;;;;;;3.73;0.77;;;;;;;10.18;35.46;99250.98;1681311;84;21107;-66
2022/02/22 11:22:23;;;;;;;4.73;0.93;;;;;;;10.18;35.70;99254.17;1680452;84;21600;-66
2022/02/22 11:24:56;;;;;;;3.50;0.73;;;;;;;10.19;35.74;99255.30;1672884;84;21023;-66
2022/02/22 11:27:35;;;;;;;4.27;1.00;;;;;;;10.17;35.60;99250.70;1675329;84;21556;-63
2022/02/22 11:30:07;;;;;;;1.40;0.87;;;;;;;10.15;36.28;99247.41;1677392;84;20985;-65
2022/02/22 11:32:37;;;;;;;2.37;1.00;;;;;;;10.11;35.89;99250.19;1681844;84;21039;-67
2022/02/22 11:35:17;;;;;;;1.40;0.83;;;;;;;10.08;36.20;99245.31;1679923;84;21072;-64
2022/02/22 11:37:46;;;;;;;3.47;0.80;;;;;;;10.06;36.31;99253.50;1672146;84;21058;-65
2022/02/22 11:40:30;;;;;;;1.83;0.80;;;;;;;10.08;36.34;99251.97;1678508;84;21182;-65
2022/02/22 11:43:18;;;;;;;1.87;0.60;;;;;;;10.07;36.11;99247.66;1680015;84;21084;-65
2022/02/22 11:45:49;;;;;;;3.80;0.90;;;;;;;10.05;36.44;99249.72;1699981;82;21055;-65
2022/02/22 11:48:27;;;;;;;3.10;1.00;;;;;;;10.01;36.50;99253.31;1713123;82;21041;-64